Flight Track Log - Related Links

Times and Time Zones

All times are in EDT time to prevent confusion due to time zone crossing. See the SWA2236 flight status page for this flight to view local times or setup timezone preferences in your user account.

Time Position Orientation Groundspeed Altitude Reporting Facility
EDT Latitude Longitude Course Direction KTS MPH feet Rate Location/Type
Wed 09:14:27 AM 35.0672 -106.5083 66° East 230 265 8,600  Level Albuquerque Center
Wed 09:15:36 AM 35.1131 -106.5567 319° Northwest 255 293 9,000 1,477 Climbing Albuquerque Center
Wed 09:16:37 AM 35.1242 -106.6725 277° West 291 335 11,800 3,098 Climbing Albuquerque Center
Wed 09:17:38 AM 35.1400 -106.7756 281° West 310 357 15,300 2,705 Climbing Albuquerque Center
Wed 09:18:39 AM 35.1606 -106.8892 283° West 351 404 17,300 2,115 Climbing Albuquerque Center
Wed 09:19:40 AM 35.1828 -107.0258 281° West 382 440 19,600 2,115 Climbing Albuquerque Center
Wed 09:20:41 AM 35.2058 -107.1525 283° West 397 457 21,600 1,820 Climbing Albuquerque Center
Wed 09:21:42 AM 35.2267 -107.2950 280° West 439 505 23,300 1,884 Climbing Albuquerque Center
Wed 09:22:42 AM 35.2508 -107.4450 281° West 449 517 25,400 2,033 Climbing Albuquerque Center
Wed 09:23:43 AM 35.2778 -107.6133 281° West 458 527 27,400 2,016 Climbing Albuquerque Center
Wed 09:24:44 AM 35.3067 -107.7900 281° West 471 542 29,500 1,721 Climbing Albuquerque Center
Wed 09:25:45 AM 35.3325 -107.9422 282° West 474 545 30,900 1,770 Climbing Albuquerque Center
Wed 09:26:46 AM 35.3550 -108.0986 280° West 480 552 33,100 2,262 Climbing Albuquerque Center
Wed 09:27:47 AM 35.3742 -108.2725 278° West 464 534 35,500 1,770 Climbing Albuquerque Center
Wed 09:28:48 AM 35.3933 -108.4189 279° West 456 525 36,700 1,131 Climbing Albuquerque Center
Wed 09:29:49 AM 35.4111 -108.5658 278° West 455 524 37,800 639 Climbing Albuquerque Center
Wed 09:30:50 AM 35.4317 -108.7392 278° West 455 524 38,000 98 Climbing Albuquerque Center
Wed 09:31:51 AM 35.4489 -108.8853 278° West 452 520 38,000  Level Albuquerque Center
Wed 09:32:52 AM 35.4653 -109.0339 278° West 455 524 38,000  Level Albuquerque Center
Wed 09:33:53 AM 35.4858 -109.2017 279° West 447 514 38,000  Level Albuquerque Center
Wed 09:34:54 AM 35.5014 -109.3481 277° West 448 516 38,000  Level Albuquerque Center
Wed 09:35:55 AM 35.5183 -109.4911 278° West 444 511 38,000  Level Albuquerque Center
Wed 09:36:56 AM 35.5350 -109.6586 277° West 441 507 38,000 49 Level Albuquerque Center
Wed 09:37:57 AM 35.5503 -109.8014 278° West 440 506 38,100 689 Climbing Albuquerque Center
Wed 09:38:58 AM 35.5647 -109.9461 277° West 444 511 39,400 934 Climbing Albuquerque Center
Wed 09:39:59 AM 35.5833 -110.1128 278° West 441 507 40,000 293 Climbing Albuquerque Center
Wed 09:41:01 AM 35.5983 -110.2572 277° West 443 510 40,000  Level Albuquerque Center
Wed 09:42:02 AM 35.6128 -110.4011 277° West 443 510 40,000  Level Albuquerque Center
Wed 09:43:03 AM 35.6303 -110.5711 277° West 447 514 40,000  Level Albuquerque Center
Wed 09:44:04 AM 35.6458 -110.7169 278° West 449 517 40,000  Level Albuquerque Center
Wed 09:45:05 AM 35.6600 -110.8653 277° West 453 521 40,000  Level Albuquerque Center
Wed 09:46:06 AM 35.6775 -111.0353 277° West 451 519 40,000  Level Albuquerque Center
Wed 09:47:07 AM 35.6919 -111.1814 277° West 447 514 40,000  Level Albuquerque Center
Wed 09:48:08 AM 35.7064 -111.3286 277° West 451 519 40,000  Level Albuquerque Center
Wed 09:49:10 AM 35.7236 -111.4950 277° West 451 519 40,000  Level Albuquerque Center
Wed 09:50:11 AM 35.7378 -111.6444 277° West 448 516 40,000  Level Albuquerque Center
Wed 09:51:14 AM 35.7492 -111.7628 277° West 442 509 40,000  Level Los Angeles Center
Wed 09:52:16 AM 35.7650 -111.9422 276° West 442 509 40,000  Level Los Angeles Center
Wed 09:53:18 AM 35.7803 -112.1169 276° West 436 502 40,000  Level Los Angeles Center
Wed 09:54:19 AM 35.7942 -112.2639 277° West 436 502 40,000  Level Los Angeles Center
Wed 09:55:21 AM 35.8078 -112.4108 277° West 436 502 40,000  Level Los Angeles Center
Wed 09:56:35 AM 35.8231 -112.5869 276° West 436 502 40,000  Level Los Angeles Center
Wed 09:57:37 AM 35.8356 -112.7325 276° West 434 499 40,000  Level Los Angeles Center
Wed 09:58:39 AM 35.8508 -112.9086 276° West 436 502 40,000  Level Los Angeles Center
Wed 09:59:41 AM 35.8625 -113.0561 276° West 437 503 40,000  Level Los Angeles Center
Wed 10:00:42 AM 35.8753 -113.2053 276° West 441 507 40,000  Level Los Angeles Center
Wed 10:01:44 AM 35.8869 -113.3542 276° West 441 507 40,000  Level Los Angeles Center
Wed 10:02:46 AM 35.8981 -113.5050 275° West 445 512 40,000  Level Los Angeles Center
Wed 10:03:48 AM 35.9119 -113.6817 276° West 434 499 40,000  Level Los Angeles Center
Wed 10:04:49 AM 35.9219 -113.8314 275° West 434 499 40,000  Level Los Angeles Center
Wed 10:05:51 AM 35.9344 -113.9822 276° West 440 506 40,000  Level Los Angeles Center
Wed 10:06:53 AM 35.9447 -114.1314 275° West 438 504 40,000  Level Los Angeles Center
Wed 10:07:55 AM 35.9564 -114.2786 276° West 433 498 40,000  Level Los Angeles Center
Wed 10:08:57 AM 35.9664 -114.4278 275° West 435 501 40,000  Level Los Angeles Center
Wed 10:09:59 AM 35.9767 -114.5756 275° West 432 497 40,000  Level Los Angeles Center
Wed 10:11:00 AM 35.9886 -114.7533 275° West 431 496 40,000  Level Los Angeles Center
Wed 10:12:02 AM 36.0111 -114.8992 281° West 431 496 40,000  Level Los Angeles Center
Wed 10:13:04 AM 36.0708 -115.0336 299° West 438 504 40,000  Level Los Angeles Center
Wed 10:14:06 AM 36.1283 -115.1661 298° West 438 504 40,000  Level Los Angeles Center
Wed 10:15:08 AM 36.1883 -115.3014 299° West 446 513 40,000  Level Los Angeles Center
Wed 10:16:10 AM 36.2472 -115.4378 298° West 448 516 40,000  Level Los Angeles Center
Wed 10:17:12 AM 36.3125 -115.5917 298° West 456 525 40,000  Level Los Angeles Center
Wed 10:18:14 AM 36.3714 -115.7306 298° West 458 527 40,000  Level Los Angeles Center
Wed 10:19:16 AM 36.4308 -115.8681 298° West 453 521 40,000  Level Los Angeles Center
Wed 10:20:17 AM 36.4892 -116.0044 298° West 454 522 40,000  Level Los Angeles Center
Wed 10:21:19 AM 36.5594 -116.1719 298° West 456 525 40,000  Level Los Angeles Center
Wed 10:22:21 AM 36.6181 -116.3111 298° West 454 522 40,000  Level Los Angeles Center
Wed 10:23:23 AM 36.6761 -116.4503 298° West 454 522 40,000  Level Los Angeles Center
Wed 10:24:25 AM 36.7350 -116.5894 298° West 454 522 40,000  Level Los Angeles Center
Wed 10:25:27 AM 36.7947 -116.7272 298° West 453 521 40,000  Level Los Angeles Center
Wed 10:26:29 AM 36.8983 -116.8272 322° Northwest 475 547 40,000  Level Los Angeles Center
Wed 10:27:31 AM 37.0067 -116.9181 326° Northwest 470 541 40,000  Level Los Angeles Center
Wed 10:28:33 AM 37.0858 -117.0733 303° West 462 532 40,000  Level Los Angeles Center
Wed 10:29:27 AM 37.1142 -117.1908 287° West 448 516 40,000  Level Oakland Center
Wed 10:30:29 AM 37.1503 -117.3389 287° West 443 510 40,000  Level Oakland Center
Wed 10:31:30 AM 37.1853 -117.4878 286° West 444 511 40,000  Level Oakland Center
Wed 10:32:31 AM 37.2189 -117.6347 286° West 439 505 40,000  Level Oakland Center
Wed 10:33:32 AM 37.2519 -117.7828 286° West 440 506 40,000  Level Oakland Center
Wed 10:34:34 AM 37.2925 -117.9586 286° West 435 501 40,000  Level Oakland Center
Wed 10:35:35 AM 37.3250 -118.1053 286° West 435 501 40,000  Level Oakland Center
Wed 10:36:36 AM 37.3572 -118.2517 286° West 434 499 40,000  Level Oakland Center
Wed 10:37:38 AM 37.3900 -118.3964 286° West 432 497 40,000  Level Oakland Center
Wed 10:38:39 AM 37.4211 -118.5417 285° West 429 494 40,000  Level Oakland Center
Wed 10:39:40 AM 37.4536 -118.6886 286° West 433 498 40,000  Level Oakland Center
Wed 10:40:41 AM 37.4844 -118.8381 285° West 426 490 40,000  Level Oakland Center
Wed 10:41:43 AM 37.5150 -118.9811 285° West 425 489 40,000  Level Oakland Center
Wed 10:42:44 AM 37.5464 -119.1258 285° West 427 491 40,000  Level Oakland Center
Wed 10:43:45 AM 37.5775 -119.2719 285° West 430 495 40,000  Level Oakland Center
Wed 10:44:46 AM 37.6117 -119.4264 286° West 432 497 40,000 -293 Level Oakland Center
Wed 10:45:48 AM 37.6419 -119.5736 285° West 433 498 39,400 -976 Descending Oakland Center
Wed 10:46:49 AM 37.6731 -119.7200 285° West 431 496 38,000 -1,918 Descending Oakland Center
Wed 10:47:50 AM 37.7031 -119.8650 285° West 426 490 35,500 -2,656 Descending Oakland Center
Wed 10:48:51 AM 37.7319 -120.0108 284° West 427 491 32,600 -2,732 Descending Oakland Center
Wed 10:49:53 AM 37.7628 -120.1586 285° West 433 498 29,900 -2,390 Descending Oakland Center
Wed 10:50:54 AM 37.7919 -120.3028 284° West 426 490 27,700 -2,361 Descending Oakland Center
Wed 10:51:55 AM 37.8250 -120.4675 284° West 403 464 25,100 -2,311 Descending Oakland Center
Wed 10:52:56 AM 37.8522 -120.6011 285° West 393 452 23,000 -1,512 Descending Oakland Center
Wed 10:53:58 AM 37.8617 -120.7306 275° West 372 428 22,000 -1,415 Descending Oakland Center
Wed 10:54:59 AM 37.8528 -120.8664 265° West 384 442 20,100 -2,115 Descending Oakland Center
Wed 10:56:00 AM 37.8447 -120.9983 266° West 377 434 17,700 -2,754 Descending Oakland Center
Wed 10:57:01 AM 37.8356 -121.1347 265° West 385 443 14,500 -2,732 Descending Oakland Center
Wed 10:58:03 AM 37.8017 -121.2603 251° West 379 436 12,100 -1,219 Descending Oakland Center
Wed 10:59:09 AM 37.7667 -121.3833 250° West 351 404 11,900 -905 Descending Northern Cal TRACON
Wed 11:00:09 AM 37.7167 -121.4833 238° Southwest 293 337 10,200 -1,650 Descending Northern Cal TRACON
Wed 11:01:09 AM 37.6833 -121.5833 247° West 296 341 8,600 -1,158 Descending Northern Cal TRACON
Wed 11:02:03 AM 37.6667 -121.6667 256° West 277 319 8,000 -316 Descending Northern Cal TRACON
Wed 11:03:03 AM 37.6333 -121.7333 238° Southwest 239 275 8,000  Level Northern Cal TRACON
Wed 11:03:57 AM 37.6167 -121.8000 253° West 248 285 8,000 -368 Level Northern Cal TRACON
Wed 11:04:57 AM 37.5833 -121.8833 243° Southwest 250 288 7,300 -1,300 Descending Northern Cal TRACON
Wed 11:05:57 AM 37.5500 -121.9667 243° Southwest 255 293 5,400 -1,900 Descending Northern Cal TRACON
Wed 11:06:57 AM 37.5833 -122.0333 302° West 250 288 3,500 -1,316 Descending Northern Cal TRACON
Wed 11:07:51 AM 37.6167 -122.1000 302° West 218 251 2,900 -789 Descending Northern Cal TRACON
Wed 11:08:51 AM 37.6500 -122.1333 322° Northwest 151 174 2,000 -1,053 Descending Northern Cal TRACON
Wed 11:09:45 AM 37.6833 -122.1667 322° Northwest 138 159 900 -1,000 Descending Northern Cal TRACON
Wed 11:10:45 AM 37.7000 -122.2167 293° West 138 159 100 -800 Descending Northern Cal TRACON
Wed 11:13:00 AM 37.7167 -122.2167 270° West  Level FlightAware Approximate
Wed 11:20:00 AM 37.7213 -122.2207 270° West  Level Estimated

Login

Don't have an account? Register now (free) for customized features, flight alerts, and more!